Time;durP1;ratioP1;P1;durP2;ratioP2;P2;SDS_P1;SDS_P2;PMS_P1;PMS_P2;Temp;Humidity;BMP_temperature;BMP_pressure;BME280_temperature;BME280_humidity;BME280_pressure;Samples;Min_cycle;Max_cycle;Signal;HPM_P1;HPM_P2
2020/12/02 00:00:41;;;;;;;34.30;20.42;;;4.50;46.00;;;;;;5095825;28;20024;-48
2020/12/02 00:03:27;;;;;;;33.13;20.00;;;4.40;45.20;;;;;;5096098;28;20024;-50
2020/12/02 00:05:56;;;;;;;34.25;19.85;;;4.40;45.40;;;;;;5095683;28;20040;-49
2020/12/02 00:08:48;;;;;;;32.35;17.92;;;4.40;45.30;;;;;;5096045;28;20437;-49
2020/12/02 00:11:14;;;;;;;;;;;4.40;45.10;;;;;;5094884;28;20043;-48
2020/12/02 00:13:47;;;;;;;32.78;19.08;;;4.40;44.90;;;;;;5095595;28;19904;-49
2020/12/02 00:16:16;;;;;;;32.88;17.73;;;4.50;45.10;;;;;;5095437;28;20035;-49
2020/12/02 00:18:42;;;;;;;30.42;17.88;;;4.40;45.00;;;;;;5095619;28;20067;-49
2020/12/02 00:21:08;;;;;;;30.60;17.67;;;4.40;45.20;;;;;;5095735;28;20107;-48
2020/12/02 00:23:35;;;;;;;32.25;18.85;;;4.40;45.40;;;;;;5095414;28;20115;-48
2020/12/02 00:26:01;;;;;;;32.40;18.17;;;4.40;45.70;;;;;;5095355;28;20027;-49
2020/12/02 00:28:27;;;;;;;33.28;20.30;;;4.40;45.60;;;;;;5095300;28;20031;-48
2020/12/02 00:30:53;;;;;;;32.17;19.15;;;4.40;45.30;;;;;;5095385;28;20082;-48
2020/12/02 00:33:25;;;;;;;31.58;19.00;;;4.40;45.20;;;;;;5095033;28;20096;-49
2020/12/02 00:35:51;;;;;;;32.97;19.52;;;4.40;45.10;;;;;;5095237;28;20024;-48
2020/12/02 00:38:19;;;;;;;32.47;18.33;;;4.40;45.10;;;;;;5095431;28;20470;-51
2020/12/02 00:40:46;;;;;;;33.65;19.45;;;4.40;45.20;;;;;;5095383;28;20385;-48
2020/12/02 00:43:14;;;;;;;31.10;18.80;;;4.40;45.40;;;;;;5095023;28;20028;-48
2020/12/02 00:45:41;;;;;;;36.30;18.98;;;4.30;45.10;;;;;;5094919;28;20130;-50
2020/12/02 00:48:16;;;;;;;30.90;18.52;;;4.30;45.20;;;;;;5095009;28;20020;-48
2020/12/02 00:50:42;;;;;;;34.97;19.85;;;4.30;44.90;;;;;;5094907;28;20419;-48
2020/12/02 00:53:27;;;;;;;35.28;19.65;;;4.30;44.80;;;;;;5094783;28;20016;-50
2020/12/02 00:55:53;;;;;;;32.83;19.58;;;4.30;45.10;;;;;;5095285;28;20020;-49
2020/12/02 00:58:38;;;;;;;32.22;19.30;;;4.30;45.20;;;;;;5094836;28;20377;-49
2020/12/02 01:01:06;;;;;;;30.77;17.42;;;4.30;45.00;;;;;;5091385;28;20440;-46
2020/12/02 01:03:34;;;;;;;32.08;18.05;;;4.20;45.20;;;;;;5085061;28;20090;-46
2020/12/02 01:06:02;;;;;;;33.90;18.48;;;4.20;45.10;;;;;;5091950;28;20028;-48
2020/12/02 01:08:33;;;;;;;31.95;18.42;;;4.20;45.20;;;;;;5093854;28;20020;-48
2020/12/02 01:11:16;;;;;;;31.52;17.77;;;4.20;45.20;;;;;;5093725;28;20081;-49
2020/12/02 01:13:43;;;;;;;32.83;18.48;;;4.20;45.30;;;;;;5093648;28;20024;-48
2020/12/02 01:16:16;;;;;;;29.90;18.38;;;4.20;45.20;;;;;;5093983;28;20411;-51
2020/12/02 01:18:42;;;;;;;35.28;18.60;;;4.20;45.40;;;;;;5094282;28;20024;-48
2020/12/02 01:21:14;;;;;;;33.42;18.35;;;4.20;45.60;;;;;;5093959;28;20063;-49
2020/12/02 01:23:42;;;;;;;;;;;4.20;45.70;;;;;;5094698;28;20036;-48
2020/12/02 01:26:09;;;;;;;30.17;17.45;;;4.10;45.50;;;;;;5094144;28;19908;-51
2020/12/02 01:28:37;;;;;;;31.15;18.05;;;4.10;45.70;;;;;;5094068;28;20485;-49
2020/12/02 01:31:05;;;;;;;30.63;18.08;;;4.10;45.70;;;;;;5094024;28;20039;-48
2020/12/02 01:33:31;;;;;;;31.45;18.02;;;4.10;45.50;;;;;;5093990;28;20051;-50
2020/12/02 01:35:57;;;;;;;33.17;17.98;;;4.10;45.40;;;;;;5093981;28;20032;-49
2020/12/02 01:38:37;;;;;;;30.75;18.02;;;4.10;45.50;;;;;;5094107;28;20107;-48
2020/12/02 01:41:03;;;;;;;30.92;17.67;;;4.00;45.70;;;;;;5094034;28;20389;-48
2020/12/02 01:43:29;;;;;;;29.10;17.27;;;4.00;45.80;;;;;;5093778;28;20093;-48
2020/12/02 01:46:04;;;;;;;34.03;19.15;;;4.00;45.60;;;;;;5093892;28;20046;-48
2020/12/02 01:48:55;;;;;;;33.58;18.45;;;4.00;46.20;;;;;;5093792;28;20028;-47
2020/12/02 01:51:42;;;;;;;33.47;17.50;;;4.00;45.90;;;;;;5093647;28;20035;-47
2020/12/02 01:54:31;;;;;;;34.47;17.95;;;3.90;45.90;;;;;;5093653;28;20050;-47
2020/12/02 01:57:21;;;;;;;30.52;17.33;;;3.90;45.70;;;;;;5093242;28;20491;-48
2020/12/02 01:59:55;;;;;;;33.35;18.05;;;3.90;46.00;;;;;;5093089;28;20032;-48
2020/12/02 02:02:37;;;;;;;36.03;18.58;;;3.90;46.20;;;;;;5093633;28;20024;-49
2020/12/02 02:05:11;;;;;;;32.72;17.60;;;3.90;46.40;;;;;;5093818;28;20481;-50
2020/12/02 02:07:39;;;;;;;34.38;18.85;;;3.90;46.70;;;;;;5093763;28;20051;-49
2020/12/02 02:10:22;;;;;;;33.70;17.98;;;3.90;46.70;;;;;;5092723;28;20485;-50
2020/12/02 02:13:28;;;;;;;33.42;18.70;;;3.90;46.50;;;;;;5093378;28;20028;-48
2020/12/02 02:16:12;;;;;;;29.67;16.73;;;3.90;46.60;;;;;;5093560;28;20372;-51
2020/12/02 02:18:38;;;;;;;31.67;16.25;;;3.80;45.90;;;;;;5093245;28;20050;-50
2020/12/02 02:21:10;;;;;;;34.60;17.95;;;3.80;46.00;;;;;;5093232;28;20028;-50
2020/12/02 02:23:36;;;;;;;30.95;16.25;;;3.80;46.10;;;;;;5093414;28;20408;-49
2020/12/02 02:26:14;;;;;;;32.33;16.52;;;3.70;45.90;;;;;;5093212;28;20028;-48
2020/12/02 02:29:02;;;;;;;32.20;16.33;;;3.70;46.00;;;;;;5093176;28;20034;-48
2020/12/02 02:31:33;;;;;;;31.73;16.73;;;3.70;46.20;;;;;;5093319;28;20020;-48
2020/12/02 02:33:59;;;;;;;31.63;17.33;;;3.70;46.20;;;;;;5093492;28;20031;-48
2020/12/02 02:36:28;;;;;;;33.25;18.00;;;3.70;46.30;;;;;;5093072;28;20020;-48
2020/12/02 02:38:55;;;;;;;30.83;17.23;;;3.70;46.50;;;;;;5093070;28;20115;-52
2020/12/02 02:41:24;;;;;;;35.03;18.40;;;3.70;46.60;;;;;;5093065;28;20585;-47
2020/12/02 02:43:50;;;;;;;33.58;18.00;;;3.70;46.80;;;;;;5093008;28;20070;-48
2020/12/02 02:46:15;;;;;;;34.22;18.25;;;3.70;46.80;;;;;;5093038;28;20119;-50
2020/12/02 02:48:42;;;;;;;33.22;18.15;;;3.60;47.10;;;;;;5093320;28;20063;-48
2020/12/02 02:51:08;;;;;;;36.03;18.00;;;3.60;47.20;;;;;;5093245;28;20086;-49
2020/12/02 02:53:34;;;;;;;35.00;18.63;;;3.60;47.20;;;;;;5092945;28;20028;-48
2020/12/02 02:56:00;;;;;;;36.83;17.58;;;3.60;47.40;;;;;;5092886;28;20034;-48
2020/12/02 02:58:28;;;;;;;32.00;17.13;;;3.60;47.30;;;;;;5093209;28;20055;-47
2020/12/02 03:00:57;;;;;;;34.65;18.13;;;3.60;47.10;;;;;;5092900;28;20031;-47
2020/12/02 03:03:26;;;;;;;32.00;17.50;;;3.60;47.00;;;;;;5092851;28;20024;-47
2020/12/02 03:05:52;;;;;;;32.50;17.02;;;3.60;47.30;;;;;;5092828;28;20114;-47
2020/12/02 03:08:18;;;;;;;30.90;16.98;;;3.60;47.30;;;;;;5092778;28;20108;-49
2020/12/02 03:10:45;;;;;;;34.85;16.45;;;3.60;47.30;;;;;;5092937;28;20536;-47
2020/12/02 03:13:30;;;;;;;33.40;17.48;;;3.60;46.90;;;;;;5092821;28;20063;-48
2020/12/02 03:15:57;;;;;;;29.98;16.23;;;3.60;47.10;;;;;;5092682;28;20024;-46
2020/12/02 03:18:24;;;;;;;30.10;16.33;;;3.50;46.70;;;;;;5092668;28;20124;-48
2020/12/02 03:20:58;;;;;;;30.23;16.95;;;3.50;46.70;;;;;;5092716;28;20024;-46
2020/12/02 03:23:24;;;;;;;31.35;17.45;;;3.50;46.80;;;;;;5096799;28;20033;-49
2020/12/02 03:25:51;;;;;;;31.17;16.50;;;3.50;46.90;;;;;;5096891;28;20473;-47
2020/12/02 03:28:17;;;;;;;31.40;15.88;;;3.50;47.00;;;;;;5096477;28;20046;-47
2020/12/02 03:30:44;;;;;;;27.83;15.93;;;3.50;46.90;;;;;;5096708;28;20059;-48
2020/12/02 03:33:13;;;;;;;31.02;16.15;;;3.60;47.10;;;;;;5096655;28;20480;-48
2020/12/02 03:35:39;;;;;;;31.08;15.80;;;3.60;47.10;;;;;;5096220;28;20035;-47
2020/12/02 03:38:05;;;;;;;33.03;17.23;;;3.50;46.90;;;;;;5096570;28;20031;-47
2020/12/02 03:40:31;;;;;;;28.58;16.48;;;3.50;47.20;;;;;;5096507;28;20389;-50
2020/12/02 03:42:57;;;;;;;34.55;17.23;;;3.60;47.30;;;;;;5096463;28;20127;-48
2020/12/02 03:45:23;;;;;;;30.15;15.93;;;3.60;47.40;;;;;;5096350;28;20429;-48
2020/12/02 03:47:49;;;;;;;29.15;16.13;;;3.60;47.30;;;;;;5096436;28;20426;-51
2020/12/02 03:50:16;;;;;;;33.55;16.75;;;3.60;47.50;;;;;;5096331;28;20115;-48
2020/12/02 03:52:42;;;;;;;27.98;14.77;;;3.60;47.40;;;;;;5095966;28;20104;-47
2020/12/02 03:55:08;;;;;;;28.27;16.95;;;3.60;47.40;;;;;;5095908;28;20024;-52
2020/12/02 03:57:34;;;;;;;29.13;16.02;;;3.60;47.20;;;;;;5095897;28;20066;-47
2020/12/02 04:00:01;;;;;;;30.08;16.27;;;3.60;47.10;;;;;;5096247;28;20020;-49
2020/12/02 04:02:27;;;;;;;30.27;16.95;;;3.60;47.20;;;;;;5095839;28;20024;-49
2020/12/02 04:04:53;;;;;;;28.00;15.80;;;3.60;47.20;;;;;;5095711;28;20130;-48
2020/12/02 04:07:19;;;;;;;28.38;15.98;;;3.60;47.00;;;;;;5095752;28;20038;-48
2020/12/02 04:09:45;;;;;;;34.28;16.65;;;3.60;47.10;;;;;;5095660;28;20024;-52
2020/12/02 04:12:11;;;;;;;29.67;16.27;;;3.60;47.10;;;;;;5095740;28;20017;-48
2020/12/02 04:14:37;;;;;;;33.38;16.30;;;3.60;47.20;;;;;;5095605;28;20028;-48
2020/12/02 04:17:02;;;;;;;26.85;14.25;;;3.60;47.20;;;;;;5095295;28;20448;-49
2020/12/02 04:19:28;;;;;;;28.67;15.20;;;3.60;47.20;;;;;;5095544;28;20055;-48
2020/12/02 04:21:56;;;;;;;35.72;16.92;;;3.60;47.40;;;;;;5095690;28;20024;-50
2020/12/02 04:24:22;;;;;;;28.00;16.02;;;3.60;47.50;;;;;;5095366;28;20093;-51
2020/12/02 04:26:48;;;;;;;29.65;16.48;;;3.70;47.20;;;;;;5095389;28;20052;-48
2020/12/02 04:29:14;;;;;;;25.60;13.90;;;3.70;47.30;;;;;;5095608;28;20036;-50
2020/12/02 04:31:40;;;;;;;29.63;13.70;;;3.70;46.80;;;;;;5095207;28;20396;-48
2020/12/02 04:34:06;;;;;;;30.67;15.25;;;3.60;47.20;;;;;;5094821;28;20024;-47
2020/12/02 04:36:32;;;;;;;27.08;14.27;;;3.70;47.10;;;;;;5095171;28;20024;-48
2020/12/02 04:38:58;;;;;;;25.60;14.52;;;3.70;46.90;;;;;;5095032;28;20020;-48
2020/12/02 04:41:28;;;;;;;31.35;15.55;;;3.70;47.00;;;;;;5095289;28;20103;-53
2020/12/02 04:43:55;;;;;;;33.05;15.23;;;3.70;47.00;;;;;;5095006;28;20028;-48
2020/12/02 04:46:28;;;;;;;26.83;14.80;;;3.70;47.00;;;;;;5095259;28;20381;-47
2020/12/02 04:48:59;;;;;;;28.50;14.88;;;3.70;47.00;;;;;;5093803;28;20536;-49
2020/12/02 04:51:27;;;;;;;29.67;15.23;;;3.70;47.20;;;;;;5095153;28;20103;-47
2020/12/02 04:53:56;;;;;;;28.20;13.50;;;3.70;46.20;;;;;;5094846;28;20064;-48
2020/12/02 04:56:25;;;;;;;27.08;13.93;;;3.70;46.30;;;;;;5094890;28;20473;-47
2020/12/02 04:58:53;;;;;;;27.05;13.23;;;3.70;46.00;;;;;;5094826;28;20048;-47
2020/12/02 05:01:47;;;;;;;26.67;13.68;;;3.70;46.30;;;;;;5095009;28;20022;-50
2020/12/02 05:04:25;;;;;;;26.95;13.50;;;3.70;46.10;;;;;;5091609;28;20489;-48
2020/12/02 05:07:16;;;;;;;23.88;13.23;;;3.80;46.20;;;;;;5094540;28;20478;-48
2020/12/02 05:09:56;;;;;;;26.50;13.52;;;3.80;45.70;;;;;;5094483;28;20031;-48
2020/12/02 05:12:25;;;;;;;26.25;13.60;;;3.80;45.80;;;;;;5094556;28;20032;-47
2020/12/02 05:14:51;;;;;;;31.95;13.80;;;3.80;45.70;;;;;;5094438;28;20035;-48
2020/12/02 05:17:22;;;;;;;27.15;14.32;;;3.80;45.80;;;;;;5094508;28;20040;-49
2020/12/02 05:20:13;;;;;;;26.73;15.10;;;3.80;46.10;;;;;;5094411;28;20586;-50
2020/12/02 05:22:44;;;;;;;25.75;12.93;;;3.80;45.90;;;;;;5094405;28;20489;-48
2020/12/02 05:25:30;;;;;;;24.27;13.00;;;3.80;45.70;;;;;;5094225;28;20091;-48
2020/12/02 05:28:20;;;;;;;28.25;12.80;;;3.80;45.40;;;;;;5094207;28;20024;-49
2020/12/02 05:30:46;;;;;;;25.02;13.15;;;3.80;45.40;;;;;;5094099;28;20082;-49
2020/12/02 05:33:12;;;;;;;24.27;12.82;;;3.80;45.20;;;;;;5094294;28;20369;-49
2020/12/02 05:35:45;;;;;;;23.25;12.85;;;3.90;45.40;;;;;;5093943;28;20036;-48
2020/12/02 05:38:24;;;;;;;22.25;12.82;;;3.90;45.10;;;;;;5094323;28;20027;-47
2020/12/02 05:40:52;;;;;;;23.85;12.02;;;3.90;45.20;;;;;;5094064;28;20032;-48
2020/12/02 05:43:27;;;;;;;19.85;11.48;;;3.90;45.20;;;;;;5093970;28;20376;-49
2020/12/02 05:45:53;;;;;;;19.00;11.43;;;3.90;45.20;;;;;;5093031;28;20524;-48
2020/12/02 05:48:26;;;;;;;22.75;12.93;;;3.90;44.70;;;;;;5093863;28;20106;-49
2020/12/02 05:50:55;;;;;;;23.23;12.48;;;3.90;44.90;;;;;;5094264;28;20377;-48
2020/12/02 05:53:29;;;;;;;22.13;11.52;;;3.90;45.00;;;;;;5093859;28;20377;-48
2020/12/02 05:55:55;;;;;;;25.50;12.50;;;4.00;44.80;;;;;;5094035;28;20028;-49
2020/12/02 05:58:28;;;;;;;22.48;12.60;;;4.00;45.40;;;;;;5093843;28;20389;-49
2020/12/02 06:00:54;;;;;;;23.10;13.18;;;4.00;45.10;;;;;;5093905;28;20357;-47
2020/12/02 06:03:30;;;;;;;24.33;12.40;;;4.00;45.30;;;;;;5093571;28;20028;-48
2020/12/02 06:06:01;;;;;;;23.63;11.98;;;4.00;44.90;;;;;;5093566;28;20119;-50
2020/12/02 06:08:39;;;;;;;24.70;12.55;;;4.00;45.20;;;;;;5093865;28;20031;-48
2020/12/02 06:11:17;;;;;;;21.77;12.68;;;4.00;45.20;;;;;;5093841;28;20107;-47
2020/12/02 06:13:48;;;;;;;22.05;12.73;;;4.00;45.90;;;;;;5093321;28;20500;-48
2020/12/02 06:16:38;;;;;;;22.80;11.55;;;4.10;46.70;;;;;;5093344;28;20035;-52
2020/12/02 06:19:13;;;;;;;25.17;14.15;;;4.10;46.60;;;;;;5093384;28;20503;-51
2020/12/02 06:21:53;;;;;;;20.95;12.48;;;4.10;47.10;;;;;;5093335;28;20109;-52
2020/12/02 06:24:36;;;;;;;23.83;12.30;;;4.00;47.20;;;;;;5093378;28;20032;-52
2020/12/02 06:27:16;;;;;;;24.38;13.02;;;4.10;47.40;;;;;;5093169;28;20035;-54
2020/12/02 06:29:50;;;;;;;26.27;13.75;;;4.10;47.20;;;;;;5093218;28;20032;-47
2020/12/02 06:32:19;;;;;;;23.30;13.25;;;4.10;48.30;;;;;;5093118;28;20095;-50
2020/12/02 06:34:47;;;;;;;23.63;13.95;;;4.10;48.40;;;;;;5093063;28;20066;-48
2020/12/02 06:37:19;;;;;;;25.45;12.80;;;4.10;49.20;;;;;;5092995;28;20035;-47
2020/12/02 06:39:56;;;;;;;27.50;14.77;;;4.10;48.60;;;;;;5093380;28;20093;-48
2020/12/02 06:42:37;;;;;;;22.15;13.45;;;4.10;49.50;;;;;;5093032;28;20032;-52
2020/12/02 06:45:34;;;;;;;25.60;13.90;;;4.10;49.30;;;;;;5092985;28;20418;-47
2020/12/02 06:48:26;;;;;;;26.70;13.27;;;4.20;49.10;;;;;;5086868;28;20040;-50
2020/12/02 06:50:59;;;;;;;22.08;12.82;;;4.20;48.40;;;;;;5092713;28;20035;-50
2020/12/02 06:53:26;;;;;;;25.27;14.07;;;4.20;49.50;;;;;;5092831;28;20082;-47
2020/12/02 06:55:57;;;;;;;24.65;14.15;;;4.20;49.50;;;;;;5092807;28;20504;-52
2020/12/02 06:58:23;;;;;;;28.40;13.95;;;4.20;49.10;;;;;;5096898;28;20503;-50
2020/12/02 07:00:52;;;;;;;29.70;14.00;;;4.20;49.20;;;;;;5096916;28;20107;-52
2020/12/02 07:03:28;;;;;;;23.25;13.10;;;4.20;49.40;;;;;;5097105;28;20062;-49
2020/12/02 07:06:17;;;;;;;22.75;13.82;;;4.10;49.40;;;;;;5097086;28;20028;-50
2020/12/02 07:08:44;;;;;;;27.90;15.35;;;4.10;50.10;;;;;;5096724;28;20047;-51
2020/12/02 07:11:23;;;;;;;31.58;18.83;;;4.20;50.70;;;;;;5096779;28;20028;-49
2020/12/02 07:13:52;;;;;;;22.67;14.15;;;4.20;51.30;;;;;;5097068;28;20020;-48
2020/12/02 07:16:31;;;;;;;20.25;11.55;;;4.20;51.00;;;;;;5096429;28;20058;-50
2020/12/02 07:19:03;;;;;;;18.45;10.18;;;4.10;49.60;;;;;;5096887;28;20036;-49
2020/12/02 07:21:42;;;;;;;15.23;8.63;;;4.00;50.30;;;;;;5096390;28;20129;-48
2020/12/02 07:24:32;;;;;;;16.83;9.43;;;4.00;51.40;;;;;;5096550;28;20401;-49
2020/12/02 07:26:58;;;;;;;14.10;8.93;;;3.80;52.50;;;;;;5096539;28;20020;-54
2020/12/02 07:29:26;;;;;;;17.38;8.60;;;3.70;54.80;;;;;;5094632;28;20089;-47
2020/12/02 07:32:11;;;;;;;19.85;9.85;;;3.60;55.10;;;;;;5096420;28;20024;-53
2020/12/02 07:34:37;;;;;;;15.48;9.10;;;3.50;53.80;;;;;;5096218;28;20032;-52
2020/12/02 07:37:13;;;;;;;16.55;8.05;;;3.50;57.70;;;;;;5096107;28;20031;-53
2020/12/02 07:39:46;;;;;;;13.82;8.05;;;3.50;55.30;;;;;;5095702;28;20071;-45
2020/12/02 07:42:29;;;;;;;14.10;8.05;;;3.50;58.40;;;;;;5093582;28;20017;-47
2020/12/02 07:45:05;;;;;;;14.90;8.55;;;3.50;54.00;;;;;;5090584;28;20044;-47
2020/12/02 07:47:33;;;;;;;26.63;13.77;;;3.50;54.40;;;;;;5081148;28;20028;-51
2020/12/02 07:50:26;;;;;;;17.60;8.32;;;3.40;53.40;;;;;;5075760;28;20389;-47
2020/12/02 07:52:55;;;;;;;17.42;9.75;;;3.40;55.60;;;;;;5075726;28;20078;-50
2020/12/02 07:55:40;;;;;;;18.67;10.07;;;3.60;55.10;;;;;;5075577;28;20482;-46
2020/12/02 07:58:14;;;;;;;19.63;9.20;;;3.60;54.70;;;;;;5075592;28;20032;-53
2020/12/02 08:00:43;;;;;;;18.20;9.70;;;3.50;55.90;;;;;;5075721;28;20481;-47
2020/12/02 08:03:27;;;;;;;16.10;8.32;;;3.60;54.20;;;;;;5081395;28;20141;-50
2020/12/02 08:06:04;;;;;;;16.98;9.02;;;3.60;52.90;;;;;;5095595;28;20036;-51
2020/12/02 08:08:29;;;;;;;25.38;11.70;;;3.60;54.00;;;;;;5092440;28;20613;-47
2020/12/02 08:11:05;;;;;;;21.55;11.07;;;3.60;59.60;;;;;;5088248;28;20032;-46
2020/12/02 08:13:34;;;;;;;29.00;13.80;;;3.70;56.70;;;;;;5094191;28;20040;-50
2020/12/02 08:16:01;;;;;;;32.28;15.52;;;3.70;57.10;;;;;;5093706;28;20027;-50
2020/12/02 08:18:30;;;;;;;19.25;10.27;;;3.70;59.50;;;;;;5088994;28;20139;-51
2020/12/02 08:21:15;;;;;;;22.63;11.88;;;3.70;57.10;;;;;;5091894;28;20357;-50
2020/12/02 08:24:02;;;;;;;20.02;10.93;;;3.70;57.90;;;;;;5075367;28;20354;-49
2020/12/02 08:26:29;;;;;;;18.52;11.55;;;3.70;58.80;;;;;;5075098;28;20032;-49
2020/12/02 08:29:06;;;;;;;16.70;10.32;;;3.70;57.40;;;;;;5080485;28;20031;-48
2020/12/02 08:31:32;;;;;;;22.60;11.52;;;3.70;57.40;;;;;;5095244;28;20107;-53
2020/12/02 08:34:08;;;;;;;26.38;12.95;;;3.70;58.70;;;;;;5095214;28;20028;-50
2020/12/02 08:36:34;;;;;;;19.67;10.98;;;3.70;59.60;;;;;;5095447;28;20077;-49
2020/12/02 08:39:00;;;;;;;21.92;13.10;;;3.70;64.70;;;;;;5095242;28;20020;-49
2020/12/02 08:41:26;;;;;;;21.67;12.15;;;3.70;60.40;;;;;;5095228;28;20076;-46
2020/12/02 08:44:06;;;;;;;33.47;17.02;;;3.70;60.30;;;;;;5094889;28;20016;-47
2020/12/02 08:46:44;;;;;;;23.35;11.77;;;3.60;60.80;;;;;;5095196;28;20039;-51
2020/12/02 08:49:10;;;;;;;20.27;10.63;;;3.50;60.30;;;;;;5095359;28;20020;-49
2020/12/02 08:51:35;;;;;;;20.45;11.10;;;3.50;61.00;;;;;;5095069;28;20524;-47
2020/12/02 08:54:12;;;;;;;16.75;10.00;;;3.40;59.60;;;;;;5094435;28;20082;-44
2020/12/02 08:56:39;;;;;;;14.70;9.35;;;3.40;59.90;;;;;;5094821;28;20024;-44
2020/12/02 08:59:10;;;;;;;19.05;10.40;;;3.20;59.50;;;;;;5094626;28;20023;-45
2020/12/02 09:01:36;;;;;;;22.50;11.05;;;3.20;61.00;;;;;;5094990;28;20058;-45
2020/12/02 09:04:02;;;;;;;19.58;12.20;;;3.30;61.60;;;;;;5094753;28;20139;-45
2020/12/02 09:06:29;;;;;;;16.65;10.75;;;3.30;61.40;;;;;;5094550;28;20028;-45
2020/12/02 09:08:55;;;;;;;17.67;9.65;;;3.20;60.40;;;;;;5094488;28;20031;-45
2020/12/02 09:11:33;;;;;;;19.40;11.70;;;3.20;64.10;;;;;;5094538;28;20144;-45
2020/12/02 09:14:00;;;;;;;15.85;9.73;;;3.20;63.20;;;;;;5094610;28;20455;-45
2020/12/02 09:16:30;;;;;;;18.45;10.05;;;3.20;59.60;;;;;;5094342;28;21497;-44
2020/12/02 09:18:57;;;;;;;18.30;10.18;;;3.10;62.20;;;;;;5094085;28;20078;-48
2020/12/02 09:21:25;;;;;;;18.27;10.80;;;3.10;67.10;;;;;;5094158;28;20032;-48
2020/12/02 09:23:52;;;;;;;20.25;10.77;;;3.20;65.70;;;;;;5124047;22;20058;-61
2020/12/02 09:26:20;;;;;;;21.00;10.93;;;3.20;70.10;;;;;;5113191;28;20100;-61
2020/12/02 09:28:47;;;;;;;22.50;11.00;;;3.20;65.10;;;;;;5112616;28;21409;-61
2020/12/02 09:31:14;;;;;;;20.15;11.52;;;3.10;61.60;;;;;;5114254;28;20024;-61
2020/12/02 09:33:40;;;;;;;21.75;12.63;;;3.10;59.70;;;;;;5114314;28;20088;-60
2020/12/02 09:36:06;;;;;;;18.90;10.70;;;3.10;63.20;;;;;;5098674;28;20028;-60
2020/12/02 09:38:32;;;;;;;17.02;10.48;;;3.10;60.10;;;;;;5102614;28;20046;-61
2020/12/02 09:41:20;;;;;;;21.27;11.80;;;3.10;60.00;;;;;;5093887;28;20021;-61
2020/12/02 09:44:16;;;;;;;21.20;11.98;;;3.10;60.80;;;;;;5093938;28;20030;-61
2020/12/02 09:46:44;;;;;;;18.42;10.68;;;3.10;63.60;;;;;;5094003;28;20516;-62
2020/12/02 09:49:12;;;;;;;19.17;11.75;;;3.00;64.00;;;;;;5093779;28;20031;-61
2020/12/02 09:51:40;;;;;;;21.50;12.10;;;3.00;60.70;;;;;;5096314;28;20028;-62
2020/12/02 09:54:10;;;;;;;19.88;11.30;;;3.00;61.00;;;;;;5105383;28;20404;-60
2020/12/02 09:56:45;;;;;;;19.70;11.85;;;3.00;60.90;;;;;;5099783;28;20029;-61
2020/12/02 09:59:12;;;;;;;21.98;12.38;;;3.10;61.80;;;;;;5073209;28;20036;-61
2020/12/02 10:01:44;;;;;;;22.48;12.32;;;3.00;61.30;;;;;;5093943;28;20377;-62
2020/12/02 10:04:37;;;;;;;20.13;10.93;;;3.00;62.40;;;;;;5080603;28;20127;-61
2020/12/02 10:07:12;;;;;;;23.13;12.35;;;3.00;62.90;;;;;;5073300;28;20496;-60
2020/12/02 10:09:44;;;;;;;19.08;12.32;;;3.00;62.90;;;;;;5073531;28;20028;-60
2020/12/02 10:12:13;;;;;;;22.73;13.35;;;2.90;62.00;;;;;;5072062;28;20104;-60
2020/12/02 10:14:51;;;;;;;25.63;14.25;;;2.90;63.90;;;;;;5074827;28;20145;-61
2020/12/02 10:17:26;;;;;;;23.33;12.38;;;2.90;65.90;;;;;;5095409;28;20480;-61
2020/12/02 10:20:07;;;;;;;29.63;13.30;;;2.90;67.30;;;;;;5101501;28;20096;-60
2020/12/02 10:22:57;;;;;;;22.50;11.83;;;3.00;70.80;;;;;;5093537;28;20039;-62
2020/12/02 10:25:45;;;;;;;21.92;13.15;;;2.90;67.50;;;;;;5093337;28;20047;-62
2020/12/02 10:28:35;;;;;;;26.25;13.43;;;3.00;68.70;;;;;;5106565;28;20047;-62
2020/12/02 10:31:18;;;;;;;23.52;13.48;;;2.90;66.30;;;;;;5097931;28;20488;-61
2020/12/02 10:34:06;;;;;;;23.55;13.57;;;2.90;74.90;;;;;;5103424;28;20020;-62
2020/12/02 10:36:38;;;;;;;22.73;13.13;;;2.90;66.10;;;;;;5113107;28;20069;-62
2020/12/02 10:39:12;;;;;;;20.65;12.73;;;2.90;64.30;;;;;;5113833;28;20427;-62
2020/12/02 10:41:52;;;;;;;25.67;13.05;;;2.90;67.10;;;;;;5113843;28;20119;-62
2020/12/02 10:44:38;;;;;;;24.50;12.20;;;2.90;70.40;;;;;;5113666;28;20024;-62
2020/12/02 10:47:36;;;;;;;19.33;10.88;;;2.90;67.90;;;;;;5113839;28;20024;-62
2020/12/02 10:50:07;;;;;;;21.10;11.90;;;2.90;66.80;;;;;;5113399;28;20076;-62
2020/12/02 10:52:33;;;;;;;19.98;11.05;;;2.90;64.30;;;;;;5113427;28;20036;-62
2020/12/02 10:55:01;;;;;;;19.20;11.15;;;3.00;64.20;;;;;;5113627;28;20422;-62
2020/12/02 10:57:27;;;;;;;19.75;11.57;;;3.00;61.50;;;;;;5113240;28;20028;-62
2020/12/02 10:59:58;;;;;;;22.92;11.23;;;3.00;63.30;;;;;;5113336;28;20032;-62
2020/12/02 11:02:31;;;;;;;20.25;11.38;;;3.00;60.90;;;;;;5111525;28;20066;-62
2020/12/02 11:04:57;;;;;;;24.35;11.02;;;3.00;59.50;;;;;;5110286;28;20119;-62
2020/12/02 11:07:57;;;;;;;18.08;10.77;;;3.00;59.90;;;;;;5092845;28;20485;-62
2020/12/02 11:10:42;;;;;;;18.15;10.07;;;3.10;58.30;;;;;;5070095;28;20111;-62
2020/12/02 11:13:32;;;;;;;18.17;10.02;;;3.10;58.20;;;;;;5072575;28;20051;-62
2020/12/02 11:15:58;;;;;;;19.58;10.45;;;3.10;58.20;;;;;;5095578;28;20064;-62
2020/12/02 11:18:45;;;;;;;19.70;10.80;;;3.10;59.40;;;;;;5101868;28;20082;-62
2020/12/02 11:21:32;;;;;;;17.70;9.88;;;3.10;58.20;;;;;;5092937;28;20405;-60
2020/12/02 11:24:35;;;;;;;20.83;10.85;;;3.10;59.70;;;;;;5092450;28;20036;-61
2020/12/02 11:27:03;;;;;;;25.15;12.90;;;3.20;64.50;;;;;;5102694;28;20366;-62
2020/12/02 11:29:29;;;;;;;25.45;14.27;;;3.20;61.20;;;;;;5092765;28;20063;-62
2020/12/02 11:32:04;;;;;;;22.77;12.23;;;3.20;59.20;;;;;;5091360;28;20488;-61
2020/12/02 11:34:35;;;;;;;18.23;10.85;;;3.20;59.80;;;;;;5098862;28;20508;-62
2020/12/02 11:37:07;;;;;;;;;;;3.20;59.00;;;;;;5099103;28;20473;-62
2020/12/02 11:40:04;;;;;;;21.05;12.10;;;3.20;62.00;;;;;;5081470;28;19904;-62
2020/12/02 11:42:44;;;;;;;25.45;11.77;;;3.20;62.70;;;;;;5074470;28;20032;-61
2020/12/02 11:45:20;;;;;;;25.60;12.80;;;3.20;58.60;;;;;;5084400;28;20482;-61
2020/12/02 11:48:28;;;;;;;23.30;13.00;;;3.20;59.30;;;;;;5087366;28;20025;-61
2020/12/02 11:51:32;;;;;;;22.15;11.23;;;3.20;58.90;;;;;;5079216;28;20113;-62
2020/12/02 11:54:05;;;;;;;18.77;11.57;;;3.20;59.10;;;;;;5078182;28;20040;-62
2020/12/02 11:56:44;;;;;;;20.98;13.10;;;3.30;65.40;;;;;;5093939;28;20071;-61
2020/12/02 11:59:15;;;;;;;23.48;12.45;;;3.30;62.30;;;;;;5104857;28;20042;-61
2020/12/02 12:01:56;;;;;;;25.85;12.98;;;3.30;66.30;;;;;;5106992;28;20442;-62
2020/12/02 12:04:33;;;;;;;18.83;11.77;;;3.20;65.10;;;;;;5105364;28;20028;-62
2020/12/02 12:07:33;;;;;;;20.55;12.32;;;3.20;61.50;;;;;;5113839;28;20043;-64
2020/12/02 12:10:28;;;;;;;25.10;13.85;;;3.30;65.90;;;;;;5096813;28;20484;-63
2020/12/02 12:13:20;;;;;;;16.58;9.90;;;3.30;64.00;;;;;;5095850;28;20110;-63
2020/12/02 12:15:54;;;;;;;20.80;12.90;;;3.20;65.60;;;;;;5096076;28;20020;-62
2020/12/02 12:18:38;;;;;;;23.05;11.48;;;3.20;63.70;;;;;;5095631;28;20024;-63
2020/12/02 12:21:18;;;;;;;22.05;12.23;;;3.30;64.60;;;;;;5087505;28;20048;-61
2020/12/02 12:23:59;;;;;;;20.40;11.82;;;3.30;66.90;;;;;;5090886;28;20090;-63
2020/12/02 12:26:29;;;;;;;23.20;12.63;;;3.30;67.70;;;;;;5116153;28;20106;-63
2020/12/02 12:28:55;;;;;;;24.52;13.70;;;3.30;68.40;;;;;;5087132;28;20026;-62
2020/12/02 12:31:37;;;;;;;23.50;12.55;;;3.30;66.80;;;;;;5097714;28;20020;-62
2020/12/02 12:34:21;;;;;;;23.30;12.35;;;3.30;66.80;;;;;;5091149;28;20021;-62
2020/12/02 12:36:51;;;;;;;23.73;12.23;;;3.30;66.40;;;;;;5097022;28;20177;-61
2020/12/02 12:39:23;;;;;;;26.40;13.15;;;3.30;69.60;;;;;;5097718;28;20031;-62
2020/12/02 12:41:52;;;;;;;25.00;14.05;;;3.20;65.10;;;;;;5086252;28;20484;-61
2020/12/02 12:44:34;;;;;;;22.38;12.85;;;3.30;65.40;;;;;;5097633;28;21500;-62
2020/12/02 12:47:22;;;;;;;24.60;13.27;;;3.30;68.10;;;;;;5089016;28;20056;-62
2020/12/02 12:49:48;;;;;;;16.67;10.52;;;3.30;65.20;;;;;;5082493;28;20381;-62
2020/12/02 12:52:19;;;;;;;20.10;12.70;;;3.20;66.10;;;;;;5074806;28;20021;-62
2020/12/02 12:54:46;;;;;;;21.33;12.55;;;3.20;65.60;;;;;;5077538;28;20032;-62
2020/12/02 12:57:15;;;;;;;24.35;13.27;;;3.20;64.80;;;;;;5082272;28;20020;-62
2020/12/02 12:59:41;;;;;;;22.15;13.05;;;3.30;65.10;;;;;;5113542;28;20539;-62
2020/12/02 13:02:19;;;;;;;22.48;13.82;;;3.20;69.40;;;;;;5108679;27;20040;-63
2020/12/02 13:04:45;;;;;;;25.15;14.35;;;3.30;72.10;;;;;;5094600;28;20051;-63
2020/12/02 13:07:27;;;;;;;25.27;11.98;;;3.30;64.80;;;;;;5094856;28;20059;-61
2020/12/02 13:09:55;;;;;;;;;;;3.30;70.70;;;;;;5103621;28;20032;-62